createdAt,value
2019-01-13T00:03:24.007Z,8.83
2019-01-13T00:08:31.561Z,10.07
2019-01-13T00:13:38.282Z,11.27
2019-01-13T00:18:46.495Z,8.50
2019-01-13T00:23:54.372Z,10.70
2019-01-13T00:29:01.914Z,10.20
2019-01-13T00:34:09.604Z,10.53
2019-01-13T00:39:17.264Z,11.87
2019-01-13T00:44:25.110Z,9.70
2019-01-13T00:49:32.938Z,10.97
2019-01-13T00:54:41.947Z,11.37
2019-01-13T00:59:50.849Z,12.23
2019-01-13T01:04:58.481Z,11.13
2019-01-13T01:10:05.877Z,11.90
2019-01-13T01:15:13.712Z,11.80
2019-01-13T01:20:21.271Z,10.33
2019-01-13T01:25:28.627Z,10.27
2019-01-13T01:30:36.105Z,9.50
2019-01-13T01:35:44.978Z,10.17
2019-01-13T01:40:51.219Z,9.73
2019-01-13T01:45:59.092Z,10.43
2019-01-13T01:51:06.883Z,10.87
2019-01-13T01:56:14.973Z,9.13
2019-01-13T02:01:22.785Z,9.50
2019-01-13T02:06:29.452Z,8.50
2019-01-13T02:11:36.811Z,10.50
2019-01-13T02:16:44.359Z,9.83
2019-01-13T02:21:54.215Z,8.57
2019-01-13T02:27:01.893Z,8.10
2019-01-13T02:32:08.607Z,9.50
2019-01-13T02:37:18.784Z,8.77
2019-01-13T02:42:25.938Z,9.63
2019-01-13T02:47:33.676Z,9.67
2019-01-13T02:52:44.466Z,9.50
2019-01-13T02:57:52.403Z,10.47
2019-01-13T03:03:02.421Z,10.47
2019-01-13T03:08:13.555Z,10.03
2019-01-13T03:13:21.602Z,10.73
2019-01-13T03:18:28.555Z,10.70
2019-01-13T03:23:35.026Z,8.93
2019-01-13T03:28:44.264Z,9.60
2019-01-13T03:33:50.953Z,8.47
2019-01-13T03:38:59.566Z,7.20
2019-01-13T03:44:07.323Z,7.13
2019-01-13T03:49:14.626Z,7.77
2019-01-13T03:54:22.182Z,6.73
2019-01-13T03:59:29.449Z,6.80
2019-01-13T04:04:36.817Z,6.33
2019-01-13T04:09:45.128Z,6.37
2019-01-13T04:14:55.305Z,6.23
2019-01-13T04:20:03.010Z,7.00
2019-01-13T04:25:11.130Z,6.17
2019-01-13T04:30:18.712Z,5.50
2019-01-13T04:35:29.858Z,5.70
2019-01-13T04:40:37.506Z,5.20
2019-01-13T04:45:45.203Z,5.37
2019-01-13T04:50:55.301Z,5.37
2019-01-13T04:56:03.014Z,5.10
2019-01-13T05:01:11.545Z,5.10
2019-01-13T05:06:18.933Z,4.90
2019-01-13T05:11:24.801Z,6.10
2019-01-13T05:16:32.675Z,5.73
2019-01-13T05:21:41.135Z,5.77
2019-01-13T05:26:47.304Z,6.20
2019-01-13T05:31:54.027Z,5.20
2019-01-13T05:37:01.763Z,5.10
2019-01-13T05:42:10.145Z,5.33
2019-01-13T05:47:17.197Z,5.03
2019-01-13T05:52:24.683Z,4.30
2019-01-13T05:57:50.024Z,5.00
2019-01-13T06:02:57.357Z,4.43
2019-01-13T06:08:03.400Z,4.70
2019-01-13T06:13:11.087Z,4.13
2019-01-13T06:18:18.708Z,3.77
2019-01-13T06:23:24.714Z,4.40
2019-01-13T06:28:32.316Z,4.47
2019-01-13T06:33:39.370Z,3.77
2019-01-13T06:38:46.615Z,3.80
2019-01-13T06:43:56.003Z,4.00
2019-01-13T06:49:04.851Z,4.43
2019-01-13T06:54:11.061Z,4.77
2019-01-13T06:59:20.180Z,4.40
2019-01-13T07:04:28.827Z,4.50
2019-01-13T07:09:34.827Z,4.23
2019-01-13T07:14:42.505Z,4.50
2019-01-13T07:19:49.927Z,4.50
2019-01-13T07:24:56.428Z,4.50
2019-01-13T07:30:04.852Z,4.97
2019-01-13T07:35:13.843Z,4.80
2019-01-13T07:40:23.360Z,4.60
2019-01-13T07:45:30.983Z,5.00
2019-01-13T07:50:38.695Z,4.33
2019-01-13T07:55:44.830Z,4.83
2019-01-13T08:00:52.448Z,5.63
2019-01-13T08:06:00.236Z,5.03
2019-01-13T08:11:08.919Z,5.10
2019-01-13T08:16:17.007Z,4.60
2019-01-13T08:21:24.937Z,4.13
2019-01-13T08:26:32.975Z,4.50
2019-01-13T08:31:39.208Z,5.43
2019-01-13T08:36:46.224Z,5.60
2019-01-13T08:41:53.966Z,4.80
2019-01-13T08:47:00.305Z,5.30
2019-01-13T08:52:07.419Z,5.10
2019-01-13T08:57:14.716Z,4.37
2019-01-13T09:02:22.216Z,3.97
2019-01-13T09:07:28.587Z,4.27
2019-01-13T09:12:34.683Z,4.37
2019-01-13T09:17:42.362Z,4.23
2019-01-13T09:22:51.010Z,4.23
2019-01-13T09:27:58.575Z,4.80
2019-01-13T09:33:05.710Z,4.63
2019-01-13T09:38:15.875Z,4.93
2019-01-13T09:43:25.225Z,5.03
2019-01-13T09:48:38.355Z,6.10
2019-01-13T09:53:46.686Z,5.87
2019-01-13T09:58:52.759Z,4.43
2019-01-13T10:04:02.454Z,4.60
2019-01-13T10:09:12.910Z,4.83
2019-01-13T10:14:22.501Z,7.00
2019-01-13T10:19:30.020Z,5.23
2019-01-13T10:24:36.739Z,4.93
2019-01-13T10:29:44.683Z,5.43
2019-01-13T10:34:52.219Z,5.00
2019-01-13T10:39:58.337Z,5.00
2019-01-13T10:45:05.925Z,5.13
2019-01-13T10:50:22.470Z,5.33
2019-01-13T10:55:28.634Z,5.13
2019-01-13T11:00:36.822Z,5.93
2019-01-13T11:05:43.881Z,5.93
2019-01-13T11:10:50.206Z,6.50
2019-01-13T11:15:57.035Z,5.97
2019-01-13T11:21:04.432Z,6.33
2019-01-13T11:26:12.035Z,6.10
2019-01-13T11:31:19.726Z,5.47
2019-01-13T11:36:26.969Z,6.50
2019-01-13T11:41:36.263Z,6.53
2019-01-13T11:46:43.935Z,7.10
2019-01-13T11:51:49.957Z,7.37
2019-01-13T11:56:58.659Z,5.83
2019-01-13T12:02:04.731Z,7.60
2019-01-13T12:07:10.899Z,8.90
2019-01-13T12:12:17.859Z,6.53
2019-01-13T12:17:24.994Z,5.40
2019-01-13T12:22:32.991Z,6.37
2019-01-13T12:27:39.174Z,6.73
2019-01-13T12:32:46.939Z,5.83
2019-01-13T12:37:54.103Z,4.87
2019-01-13T12:43:01.376Z,8.33
2019-01-13T12:48:09.034Z,6.80
2019-01-13T12:53:15.158Z,5.50
2019-01-13T12:58:23.056Z,4.90
2019-01-13T13:03:31.849Z,4.83
2019-01-13T13:08:38.559Z,4.97
2019-01-13T13:13:44.737Z,6.63
2019-01-13T13:18:52.551Z,4.40
2019-01-13T13:24:00.051Z,4.83
2019-01-13T13:29:07.157Z,3.63
2019-01-13T13:34:14.528Z,3.37
2019-01-13T13:39:21.650Z,3.17
2019-01-13T13:44:29.346Z,2.90
2019-01-13T13:49:36.967Z,3.00
2019-01-13T13:54:43.795Z,3.10
2019-01-13T13:59:51.282Z,3.37
2019-01-13T14:04:58.045Z,3.43
2019-01-13T14:10:05.651Z,3.40
2019-01-13T14:15:13.327Z,3.67
2019-01-13T14:20:21.118Z,3.77
2019-01-13T14:25:28.579Z,3.63
2019-01-13T14:30:36.435Z,3.97
2019-01-13T14:35:44.278Z,3.53
2019-01-13T14:40:51.902Z,3.80
2019-01-13T14:45:57.871Z,3.97
2019-01-13T14:51:04.020Z,4.07
2019-01-13T14:56:10.249Z,3.40
2019-01-13T15:01:17.094Z,3.83
2019-01-13T15:06:23.985Z,3.00
2019-01-13T15:11:31.362Z,3.70
2019-01-13T15:16:38.940Z,16.33
2019-01-13T15:21:44.950Z,3.10
2019-01-13T15:26:52.541Z,3.13
2019-01-13T15:31:59.807Z,3.63
2019-01-13T15:37:07.430Z,3.43
2019-01-13T15:42:14.372Z,4.87
2019-01-13T15:47:21.058Z,4.13
2019-01-13T15:52:28.910Z,4.03
2019-01-13T15:57:35.983Z,4.03
2019-01-13T16:02:42.797Z,3.10
2019-01-13T16:07:50.067Z,6.87
2019-01-13T16:12:56.126Z,6.33
2019-01-13T16:18:04.034Z,5.67
2019-01-13T16:23:11.711Z,8.97
2019-01-13T16:28:18.512Z,4.90
2019-01-13T16:33:24.602Z,5.10
2019-01-13T16:38:32.183Z,6.97
2019-01-13T16:43:39.413Z,6.70
2019-01-13T16:48:46.716Z,5.00
2019-01-13T16:53:54.530Z,4.13
2019-01-13T16:59:02.215Z,4.40
2019-01-13T17:04:09.391Z,6.30
2019-01-13T17:09:16.371Z,7.77
2019-01-13T17:14:24.544Z,7.03
2019-01-13T17:19:31.930Z,6.67
2019-01-13T17:24:39.461Z,6.97
2019-01-13T17:29:45.592Z,6.03
2019-01-13T17:34:52.997Z,6.63
2019-01-13T17:40:00.046Z,5.53
2019-01-13T17:45:09.393Z,6.27
2019-01-13T17:50:18.460Z,9.33
2019-01-13T17:55:26.191Z,7.67
2019-01-13T18:01:00.595Z,8.13
2019-01-13T18:06:08.334Z,5.90
2019-01-13T18:11:15.431Z,5.90
2019-01-13T18:16:23.027Z,6.70
2019-01-13T18:21:30.046Z,6.30
2019-01-13T18:26:38.491Z,6.03
2019-01-13T18:31:44.604Z,7.03
2019-01-13T18:36:51.760Z,9.20
2019-01-13T18:41:57.761Z,7.37
2019-01-13T18:47:04.030Z,7.83
2019-01-13T18:52:11.405Z,9.80
2019-01-13T18:57:19.392Z,14.93
2019-01-13T19:02:26.519Z,11.33
2019-01-13T19:07:35.803Z,13.90
2019-01-13T19:12:43.605Z,12.53
2019-01-13T19:17:53.453Z,13.23
2019-01-13T19:23:03.111Z,13.33
2019-01-13T19:28:10.763Z,15.37
2019-01-13T19:33:17.760Z,15.97
2019-01-13T19:38:25.067Z,18.77
2019-01-13T19:43:33.018Z,20.90
2019-01-13T19:48:40.208Z,18.43
2019-01-13T19:53:47.434Z,25.17
2019-01-13T19:58:53.908Z,12.87
2019-01-13T20:04:01.258Z,25.23
2019-01-13T20:09:11.215Z,13.30
2019-01-13T20:14:18.479Z,13.87
2019-01-13T20:19:25.045Z,12.77
2019-01-13T20:24:33.052Z,16.97
2019-01-13T20:29:39.965Z,18.77
2019-01-13T20:34:47.095Z,17.03
2019-01-13T20:39:53.703Z,15.37
2019-01-13T20:45:01.406Z,13.50
2019-01-13T20:50:08.902Z,14.10
2019-01-13T20:55:15.922Z,11.93
2019-01-13T21:00:25.588Z,9.80
2019-01-13T21:05:36.398Z,10.47
2019-01-13T21:10:44.334Z,10.30
2019-01-13T21:15:50.550Z,12.00
2019-01-13T21:20:57.941Z,14.43
2019-01-13T21:26:04.547Z,12.33
2019-01-13T21:31:10.720Z,10.67
2019-01-13T21:36:18.719Z,8.60
2019-01-13T21:41:25.151Z,10.90
2019-01-13T21:46:33.123Z,12.30
2019-01-13T21:51:39.623Z,6.63
2019-01-13T21:56:46.760Z,5.67
2019-01-13T22:01:54.661Z,6.30
2019-01-13T22:07:02.087Z,5.40
2019-01-13T22:12:08.089Z,6.03
2019-01-13T22:17:17.423Z,5.90
2019-01-13T22:22:23.882Z,5.70
2019-01-13T22:27:30.151Z,6.23
2019-01-13T22:32:37.248Z,6.30
2019-01-13T22:37:44.431Z,5.53
2019-01-13T22:42:52.052Z,4.73
2019-01-13T22:47:59.400Z,5.17
2019-01-13T22:53:07.059Z,5.80
2019-01-13T22:58:14.179Z,4.10
2019-01-13T23:03:22.127Z,5.33
2019-01-13T23:08:28.194Z,5.50
2019-01-13T23:13:34.567Z,6.33
2019-01-13T23:18:42.254Z,6.30
2019-01-13T23:23:49.210Z,6.23
2019-01-13T23:28:56.435Z,5.37
2019-01-13T23:34:03.758Z,5.47
2019-01-13T23:39:10.844Z,5.70
2019-01-13T23:44:18.343Z,6.17
2019-01-13T23:49:24.827Z,5.13
2019-01-13T23:54:33.561Z,4.00
2019-01-13T23:59:40.459Z,4.87
